sensor_id;sensor_type;location;lat;lon;timestamp;P1;durP1;ratioP1;P2;durP2;ratioP2
39314;SDS011;28703;44.412;11.918;2023-07-02T00:01:49;14.40;;;10.80;;
39314;SDS011;28703;44.412;11.918;2023-07-02T00:04:15;18.20;;;12.88;;
39314;SDS011;28703;44.412;11.918;2023-07-02T00:06:44;17.08;;;11.57;;
39314;SDS011;28703;44.412;11.918;2023-07-02T00:09:11;15.77;;;12.52;;
39314;SDS011;28703;44.412;11.918;2023-07-02T00:11:38;17.58;;;13.23;;
39314;SDS011;28703;44.412;11.918;2023-07-02T00:14:05;15.77;;;12.20;;
39314;SDS011;28703;44.412;11.918;2023-07-02T00:16:32;15.00;;;11.63;;
39314;SDS011;28703;44.412;11.918;2023-07-02T00:18:58;17.90;;;13.13;;
39314;SDS011;28703;44.412;11.918;2023-07-02T00:21:25;11.27;;;9.60;;
39314;SDS011;28703;44.412;11.918;2023-07-02T00:23:56;11.57;;;8.88;;
39314;SDS011;28703;44.412;11.918;2023-07-02T00:26:23;12.50;;;9.75;;
39314;SDS011;28703;44.412;11.918;2023-07-02T00:28:50;11.25;;;8.10;;
39314;SDS011;28703;44.412;11.918;2023-07-02T00:31:17;12.80;;;8.82;;
39314;SDS011;28703;44.412;11.918;2023-07-02T00:33:42;15.50;;;11.35;;
39314;SDS011;28703;44.412;11.918;2023-07-02T00:36:08;11.80;;;8.57;;
39314;SDS011;28703;44.412;11.918;2023-07-02T00:38:42;14.55;;;11.20;;
39314;SDS011;28703;44.412;11.918;2023-07-02T00:41:15;14.15;;;11.30;;
39314;SDS011;28703;44.412;11.918;2023-07-02T00:43:41;15.48;;;10.18;;
39314;SDS011;28703;44.412;11.918;2023-07-02T00:46:13;13.32;;;10.20;;
39314;SDS011;28703;44.412;11.918;2023-07-02T00:48:48;15.88;;;11.07;;
39314;SDS011;28703;44.412;11.918;2023-07-02T00:51:15;12.95;;;9.32;;
39314;SDS011;28703;44.412;11.918;2023-07-02T00:53:46;12.30;;;9.60;;
39314;SDS011;28703;44.412;11.918;2023-07-02T00:56:12;12.85;;;10.60;;
39314;SDS011;28703;44.412;11.918;2023-07-02T00:58:39;12.82;;;10.23;;
39314;SDS011;28703;44.412;11.918;2023-07-02T01:01:15;15.80;;;13.30;;
39314;SDS011;28703;44.412;11.918;2023-07-02T01:06:38;13.32;;;11.93;;
39314;SDS011;28703;44.412;11.918;2023-07-02T01:09:07;14.77;;;11.15;;
39314;SDS011;28703;44.412;11.918;2023-07-02T01:11:34;17.17;;;12.00;;
39314;SDS011;28703;44.412;11.918;2023-07-02T01:14:21;14.20;;;11.25;;
39314;SDS011;28703;44.412;11.918;2023-07-02T01:16:54;15.52;;;10.98;;
39314;SDS011;28703;44.412;11.918;2023-07-02T01:19:22;15.05;;;11.25;;
39314;SDS011;28703;44.412;11.918;2023-07-02T01:22:06;11.93;;;10.70;;
39314;SDS011;28703;44.412;11.918;2023-07-02T01:24:34;11.55;;;9.60;;
39314;SDS011;28703;44.412;11.918;2023-07-02T01:27:01;12.05;;;9.02;;
39314;SDS011;28703;44.412;11.918;2023-07-02T01:29:30;14.57;;;11.13;;
39314;SDS011;28703;44.412;11.918;2023-07-02T01:31:56;15.50;;;9.93;;
39314;SDS011;28703;44.412;11.918;2023-07-02T01:34:23;9.60;;;8.10;;
39314;SDS011;28703;44.412;11.918;2023-07-02T01:36:49;13.13;;;9.48;;
39314;SDS011;28703;44.412;11.918;2023-07-02T01:39:16;10.52;;;9.40;;
39314;SDS011;28703;44.412;11.918;2023-07-02T01:41:51;13.68;;;10.82;;
39314;SDS011;28703;44.412;11.918;2023-07-02T01:44:19;12.60;;;11.18;;
39314;SDS011;28703;44.412;11.918;2023-07-02T01:46:45;14.07;;;10.30;;
39314;SDS011;28703;44.412;11.918;2023-07-02T01:49:14;12.82;;;11.15;;
39314;SDS011;28703;44.412;11.918;2023-07-02T01:51:44;13.57;;;10.82;;
39314;SDS011;28703;44.412;11.918;2023-07-02T01:54:20;14.77;;;10.38;;
39314;SDS011;28703;44.412;11.918;2023-07-02T01:56:47;12.65;;;10.80;;
39314;SDS011;28703;44.412;11.918;2023-07-02T01:59:13;14.15;;;10.70;;
39314;SDS011;28703;44.412;11.918;2023-07-02T02:01:40;15.50;;;11.02;;
39314;SDS011;28703;44.412;11.918;2023-07-02T02:04:08;12.63;;;10.70;;
39314;SDS011;28703;44.412;11.918;2023-07-02T02:06:35;13.38;;;10.43;;
39314;SDS011;28703;44.412;11.918;2023-07-02T02:09:02;16.85;;;11.60;;
39314;SDS011;28703;44.412;11.918;2023-07-02T02:11:29;16.15;;;11.32;;
39314;SDS011;28703;44.412;11.918;2023-07-02T02:13:56;17.02;;;12.20;;
39314;SDS011;28703;44.412;11.918;2023-07-02T02:16:23;13.45;;;11.63;;
39314;SDS011;28703;44.412;11.918;2023-07-02T02:18:49;13.57;;;11.05;;
39314;SDS011;28703;44.412;11.918;2023-07-02T02:21:20;15.20;;;12.00;;
39314;SDS011;28703;44.412;11.918;2023-07-02T02:23:46;16.90;;;11.77;;
39314;SDS011;28703;44.412;11.918;2023-07-02T02:26:12;18.10;;;13.30;;
39314;SDS011;28703;44.412;11.918;2023-07-02T02:28:39;15.13;;;12.45;;
39314;SDS011;28703;44.412;11.918;2023-07-02T02:31:05;17.73;;;13.82;;
39314;SDS011;28703;44.412;11.918;2023-07-02T02:33:31;16.58;;;14.27;;
39314;SDS011;28703;44.412;11.918;2023-07-02T02:35:58;15.60;;;13.48;;
39314;SDS011;28703;44.412;11.918;2023-07-02T02:38:24;19.17;;;14.82;;
39314;SDS011;28703;44.412;11.918;2023-07-02T02:40:50;19.55;;;15.25;;
39314;SDS011;28703;44.412;11.918;2023-07-02T02:43:19;17.58;;;15.05;;
39314;SDS011;28703;44.412;11.918;2023-07-02T02:45:46;18.05;;;14.32;;
39314;SDS011;28703;44.412;11.918;2023-07-02T02:48:12;19.45;;;15.65;;
39314;SDS011;28703;44.412;11.918;2023-07-02T02:50:38;19.40;;;16.13;;
39314;SDS011;28703;44.412;11.918;2023-07-02T02:53:09;19.02;;;14.70;;
39314;SDS011;28703;44.412;11.918;2023-07-02T02:55:36;25.15;;;16.13;;
39314;SDS011;28703;44.412;11.918;2023-07-02T02:58:02;21.63;;;16.17;;
39314;SDS011;28703;44.412;11.918;2023-07-02T03:00:28;20.58;;;15.52;;
39314;SDS011;28703;44.412;11.918;2023-07-02T03:02:54;21.85;;;15.57;;
39314;SDS011;28703;44.412;11.918;2023-07-02T03:05:21;18.42;;;14.73;;
39314;SDS011;28703;44.412;11.918;2023-07-02T03:07:49;17.13;;;14.82;;
39314;SDS011;28703;44.412;11.918;2023-07-02T03:10:16;22.00;;;14.18;;
39314;SDS011;28703;44.412;11.918;2023-07-02T03:12:42;23.75;;;17.65;;
39314;SDS011;28703;44.412;11.918;2023-07-02T03:15:08;22.67;;;17.40;;
39314;SDS011;28703;44.412;11.918;2023-07-02T03:17:35;17.95;;;15.40;;
39314;SDS011;28703;44.412;11.918;2023-07-02T03:20:01;23.08;;;17.25;;
39314;SDS011;28703;44.412;11.918;2023-07-02T03:22:29;21.02;;;16.10;;
39314;SDS011;28703;44.412;11.918;2023-07-02T03:24:55;24.60;;;16.73;;
39314;SDS011;28703;44.412;11.918;2023-07-02T03:27:21;19.08;;;16.27;;
39314;SDS011;28703;44.412;11.918;2023-07-02T03:29:47;21.05;;;15.82;;
39314;SDS011;28703;44.412;11.918;2023-07-02T03:32:13;22.85;;;17.92;;
39314;SDS011;28703;44.412;11.918;2023-07-02T03:34:38;25.98;;;17.25;;
39314;SDS011;28703;44.412;11.918;2023-07-02T03:37:04;19.10;;;15.95;;
39314;SDS011;28703;44.412;11.918;2023-07-02T03:39:30;23.58;;;17.42;;
39314;SDS011;28703;44.412;11.918;2023-07-02T03:41:56;21.02;;;17.77;;
39314;SDS011;28703;44.412;11.918;2023-07-02T03:44:22;23.20;;;17.75;;
39314;SDS011;28703;44.412;11.918;2023-07-02T03:46:48;23.20;;;18.25;;
39314;SDS011;28703;44.412;11.918;2023-07-02T03:49:14;22.75;;;17.35;;
39314;SDS011;28703;44.412;11.918;2023-07-02T03:51:40;24.13;;;17.40;;
39314;SDS011;28703;44.412;11.918;2023-07-02T03:54:06;20.65;;;16.88;;
39314;SDS011;28703;44.412;11.918;2023-07-02T03:56:32;25.38;;;18.13;;
39314;SDS011;28703;44.412;11.918;2023-07-02T03:58:57;22.50;;;17.42;;
39314;SDS011;28703;44.412;11.918;2023-07-02T04:01:23;18.38;;;16.30;;
39314;SDS011;28703;44.412;11.918;2023-07-02T04:03:50;24.05;;;17.95;;
39314;SDS011;28703;44.412;11.918;2023-07-02T04:06:17;21.95;;;16.20;;
39314;SDS011;28703;44.412;11.918;2023-07-02T04:08:43;23.35;;;18.50;;
39314;SDS011;28703;44.412;11.918;2023-07-02T04:11:10;20.45;;;15.75;;
39314;SDS011;28703;44.412;11.918;2023-07-02T04:13:36;19.65;;;15.68;;
39314;SDS011;28703;44.412;11.918;2023-07-02T04:16:03;22.40;;;16.80;;
39314;SDS011;28703;44.412;11.918;2023-07-02T04:18:29;26.25;;;16.55;;
39314;SDS011;28703;44.412;11.918;2023-07-02T04:20:55;20.27;;;16.58;;
39314;SDS011;28703;44.412;11.918;2023-07-02T04:23:21;20.25;;;16.17;;
39314;SDS011;28703;44.412;11.918;2023-07-02T04:25:47;19.42;;;17.05;;
39314;SDS011;28703;44.412;11.918;2023-07-02T04:28:13;21.10;;;16.98;;
39314;SDS011;28703;44.412;11.918;2023-07-02T04:30:39;22.48;;;17.02;;
39314;SDS011;28703;44.412;11.918;2023-07-02T04:33:05;19.75;;;15.48;;
39314;SDS011;28703;44.412;11.918;2023-07-02T04:35:31;19.80;;;16.20;;
39314;SDS011;28703;44.412;11.918;2023-07-02T04:37:57;19.92;;;17.33;;
39314;SDS011;28703;44.412;11.918;2023-07-02T04:40:23;20.90;;;16.60;;
39314;SDS011;28703;44.412;11.918;2023-07-02T04:42:49;20.10;;;16.60;;
39314;SDS011;28703;44.412;11.918;2023-07-02T04:45:22;27.20;;;21.08;;
39314;SDS011;28703;44.412;11.918;2023-07-02T04:47:50;18.58;;;16.63;;
39314;SDS011;28703;44.412;11.918;2023-07-02T04:50:16;24.38;;;19.45;;
39314;SDS011;28703;44.412;11.918;2023-07-02T04:52:43;23.27;;;19.95;;
39314;SDS011;28703;44.412;11.918;2023-07-02T04:55:09;30.05;;;22.80;;
39314;SDS011;28703;44.412;11.918;2023-07-02T04:57:35;28.33;;;24.23;;
39314;SDS011;28703;44.412;11.918;2023-07-02T05:00:01;25.20;;;18.65;;
39314;SDS011;28703;44.412;11.918;2023-07-02T05:02:29;23.30;;;18.88;;
39314;SDS011;28703;44.412;11.918;2023-07-02T05:04:55;23.92;;;17.10;;
39314;SDS011;28703;44.412;11.918;2023-07-02T05:07:21;26.17;;;18.38;;
39314;SDS011;28703;44.412;11.918;2023-07-02T05:09:47;38.03;;;18.45;;
39314;SDS011;28703;44.412;11.918;2023-07-02T05:12:13;21.92;;;17.02;;
39314;SDS011;28703;44.412;11.918;2023-07-02T05:14:40;21.75;;;17.92;;
39314;SDS011;28703;44.412;11.918;2023-07-02T05:17:05;25.83;;;18.75;;
39314;SDS011;28703;44.412;11.918;2023-07-02T05:19:31;19.95;;;16.33;;
39314;SDS011;28703;44.412;11.918;2023-07-02T05:21:57;19.42;;;15.65;;
39314;SDS011;28703;44.412;11.918;2023-07-02T05:24:23;17.65;;;14.85;;
39314;SDS011;28703;44.412;11.918;2023-07-02T05:26:49;19.10;;;15.88;;
39314;SDS011;28703;44.412;11.918;2023-07-02T05:29:16;19.90;;;15.30;;
39314;SDS011;28703;44.412;11.918;2023-07-02T05:31:42;23.52;;;14.30;;
39314;SDS011;28703;44.412;11.918;2023-07-02T05:34:08;17.70;;;15.15;;
39314;SDS011;28703;44.412;11.918;2023-07-02T05:36:34;17.75;;;14.65;;
39314;SDS011;28703;44.412;11.918;2023-07-02T05:39:00;15.88;;;13.85;;
39314;SDS011;28703;44.412;11.918;2023-07-02T05:41:26;18.90;;;12.57;;
39314;SDS011;28703;44.412;11.918;2023-07-02T05:43:58;15.75;;;13.48;;
39314;SDS011;28703;44.412;11.918;2023-07-02T05:46:25;20.33;;;14.52;;
39314;SDS011;28703;44.412;11.918;2023-07-02T05:48:51;16.80;;;13.70;;
39314;SDS011;28703;44.412;11.918;2023-07-02T05:51:20;18.73;;;13.57;;
39314;SDS011;28703;44.412;11.918;2023-07-02T05:53:50;20.50;;;14.30;;
39314;SDS011;28703;44.412;11.918;2023-07-02T05:56:16;21.33;;;14.18;;
39314;SDS011;28703;44.412;11.918;2023-07-02T05:58:42;13.98;;;12.45;;
39314;SDS011;28703;44.412;11.918;2023-07-02T06:01:08;17.75;;;14.20;;
39314;SDS011;28703;44.412;11.918;2023-07-02T06:03:34;18.65;;;12.88;;
39314;SDS011;28703;44.412;11.918;2023-07-02T06:06:00;15.18;;;11.57;;
39314;SDS011;28703;44.412;11.918;2023-07-02T06:08:26;12.23;;;10.63;;
39314;SDS011;28703;44.412;11.918;2023-07-02T06:10:52;17.05;;;11.27;;
39314;SDS011;28703;44.412;11.918;2023-07-02T06:13:18;13.50;;;12.10;;
39314;SDS011;28703;44.412;11.918;2023-07-02T06:15:44;22.50;;;18.02;;
39314;SDS011;28703;44.412;11.918;2023-07-02T06:18:12;13.77;;;11.50;;
39314;SDS011;28703;44.412;11.918;2023-07-02T06:20:38;12.48;;;11.02;;
39314;SDS011;28703;44.412;11.918;2023-07-02T06:23:04;13.32;;;11.20;;
39314;SDS011;28703;44.412;11.918;2023-07-02T06:25:30;15.85;;;12.02;;
39314;SDS011;28703;44.412;11.918;2023-07-02T06:27:57;18.48;;;12.88;;
39314;SDS011;28703;44.412;11.918;2023-07-02T06:30:23;13.35;;;11.10;;
39314;SDS011;28703;44.412;11.918;2023-07-02T06:32:50;17.30;;;12.13;;
39314;SDS011;28703;44.412;11.918;2023-07-02T06:35:16;12.27;;;9.70;;
39314;SDS011;28703;44.412;11.918;2023-07-02T06:37:42;14.52;;;10.77;;
39314;SDS011;28703;44.412;11.918;2023-07-02T06:40:08;12.20;;;10.57;;
39314;SDS011;28703;44.412;11.918;2023-07-02T06:42:34;12.32;;;10.18;;
39314;SDS011;28703;44.412;11.918;2023-07-02T06:45:03;15.93;;;10.68;;
39314;SDS011;28703;44.412;11.918;2023-07-02T06:47:30;13.13;;;10.65;;
39314;SDS011;28703;44.412;11.918;2023-07-02T06:49:56;14.38;;;10.52;;
39314;SDS011;28703;44.412;11.918;2023-07-02T06:52:22;13.30;;;10.15;;
39314;SDS011;28703;44.412;11.918;2023-07-02T06:54:48;12.15;;;10.38;;
39314;SDS011;28703;44.412;11.918;2023-07-02T06:57:13;11.20;;;9.23;;
39314;SDS011;28703;44.412;11.918;2023-07-02T06:59:39;13.20;;;9.73;;
39314;SDS011;28703;44.412;11.918;2023-07-02T07:02:06;11.48;;;10.30;;
39314;SDS011;28703;44.412;11.918;2023-07-02T07:04:32;13.07;;;11.25;;
39314;SDS011;28703;44.412;11.918;2023-07-02T07:07:00;13.23;;;11.18;;
39314;SDS011;28703;44.412;11.918;2023-07-02T07:09:28;19.90;;;11.50;;
39314;SDS011;28703;44.412;11.918;2023-07-02T07:11:54;11.38;;;10.25;;
39314;SDS011;28703;44.412;11.918;2023-07-02T07:14:20;11.45;;;10.20;;
39314;SDS011;28703;44.412;11.918;2023-07-02T07:16:47;11.15;;;10.00;;
39314;SDS011;28703;44.412;11.918;2023-07-02T07:19:13;14.57;;;12.60;;
39314;SDS011;28703;44.412;11.918;2023-07-02T07:21:38;11.95;;;10.70;;
39314;SDS011;28703;44.412;11.918;2023-07-02T07:24:05;13.43;;;11.20;;
39314;SDS011;28703;44.412;11.918;2023-07-02T07:26:31;12.98;;;10.38;;
39314;SDS011;28703;44.412;11.918;2023-07-02T07:28:57;7.47;;;6.15;;
39314;SDS011;28703;44.412;11.918;2023-07-02T07:31:23;14.38;;;10.60;;
39314;SDS011;28703;44.412;11.918;2023-07-02T07:33:50;11.63;;;9.65;;
39314;SDS011;28703;44.412;11.918;2023-07-02T07:36:16;8.15;;;7.00;;
39314;SDS011;28703;44.412;11.918;2023-07-02T07:38:45;10.50;;;8.05;;
39314;SDS011;28703;44.412;11.918;2023-07-02T07:41:11;15.02;;;10.57;;
39314;SDS011;28703;44.412;11.918;2023-07-02T07:43:37;10.43;;;9.02;;
39314;SDS011;28703;44.412;11.918;2023-07-02T07:46:02;11.32;;;8.18;;
39314;SDS011;28703;44.412;11.918;2023-07-02T07:48:28;12.82;;;9.23;;
39314;SDS011;28703;44.412;11.918;2023-07-02T07:50:54;18.20;;;15.57;;
39314;SDS011;28703;44.412;11.918;2023-07-02T07:53:20;17.15;;;15.35;;
39314;SDS011;28703;44.412;11.918;2023-07-02T07:55:46;18.35;;;12.35;;
39314;SDS011;28703;44.412;11.918;2023-07-02T07:58:13;16.38;;;12.98;;
39314;SDS011;28703;44.412;11.918;2023-07-02T08:00:38;14.55;;;12.93;;
39314;SDS011;28703;44.412;11.918;2023-07-02T08:03:04;11.95;;;10.82;;
39314;SDS011;28703;44.412;11.918;2023-07-02T08:05:30;11.18;;;10.02;;
39314;SDS011;28703;44.412;11.918;2023-07-02T08:07:56;11.82;;;9.60;;
39314;SDS011;28703;44.412;11.918;2023-07-02T08:10:23;12.02;;;8.68;;
39314;SDS011;28703;44.412;11.918;2023-07-02T08:12:50;13.70;;;10.75;;
39314;SDS011;28703;44.412;11.918;2023-07-02T08:15:19;12.80;;;11.35;;
39314;SDS011;28703;44.412;11.918;2023-07-02T08:17:45;15.25;;;13.10;;
39314;SDS011;28703;44.412;11.918;2023-07-02T08:20:11;11.73;;;10.63;;
39314;SDS011;28703;44.412;11.918;2023-07-02T08:22:37;14.48;;;10.10;;
39314;SDS011;28703;44.412;11.918;2023-07-02T08:25:05;10.90;;;9.80;;
39314;SDS011;28703;44.412;11.918;2023-07-02T08:27:34;16.80;;;11.75;;
39314;SDS011;28703;44.412;11.918;2023-07-02T08:30:00;14.45;;;10.60;;
39314;SDS011;28703;44.412;11.918;2023-07-02T08:32:26;11.50;;;10.27;;
39314;SDS011;28703;44.412;11.918;2023-07-02T08:34:52;15.63;;;10.85;;
39314;SDS011;28703;44.412;11.918;2023-07-02T08:37:18;21.27;;;18.30;;
39314;SDS011;28703;44.412;11.918;2023-07-02T08:39:45;17.13;;;12.60;;
39314;SDS011;28703;44.412;11.918;2023-07-02T08:42:11;30.27;;;18.63;;
39314;SDS011;28703;44.412;11.918;2023-07-02T08:44:37;13.68;;;9.23;;
39314;SDS011;28703;44.412;11.918;2023-07-02T08:47:03;10.23;;;9.18;;
39314;SDS011;28703;44.412;11.918;2023-07-02T08:49:31;10.70;;;9.40;;
39314;SDS011;28703;44.412;11.918;2023-07-02T08:51:57;8.70;;;7.50;;
39314;SDS011;28703;44.412;11.918;2023-07-02T08:54:23;9.60;;;8.43;;
39314;SDS011;28703;44.412;11.918;2023-07-02T08:56:49;9.00;;;8.20;;
39314;SDS011;28703;44.412;11.918;2023-07-02T08:59:15;9.18;;;8.15;;
39314;SDS011;28703;44.412;11.918;2023-07-02T09:01:50;8.13;;;7.32;;
39314;SDS011;28703;44.412;11.918;2023-07-02T09:04:18;10.23;;;7.43;;
39314;SDS011;28703;44.412;11.918;2023-07-02T09:06:45;8.15;;;7.30;;
39314;SDS011;28703;44.412;11.918;2023-07-02T09:09:14;12.02;;;9.50;;
39314;SDS011;28703;44.412;11.918;2023-07-02T09:11:47;8.85;;;8.00;;
39314;SDS011;28703;44.412;11.918;2023-07-02T09:14:26;9.77;;;7.18;;
39314;SDS011;28703;44.412;11.918;2023-07-02T09:17:04;15.07;;;9.43;;
39314;SDS011;28703;44.412;11.918;2023-07-02T09:19:31;14.88;;;9.80;;
39314;SDS011;28703;44.412;11.918;2023-07-02T09:21:58;9.77;;;8.32;;
39314;SDS011;28703;44.412;11.918;2023-07-02T09:24:30;12.98;;;7.95;;
39314;SDS011;28703;44.412;11.918;2023-07-02T09:27:00;8.82;;;7.45;;
39314;SDS011;28703;44.412;11.918;2023-07-02T09:29:27;9.35;;;6.80;;
39314;SDS011;28703;44.412;11.918;2023-07-02T09:31:59;6.75;;;5.68;;
39314;SDS011;28703;44.412;11.918;2023-07-02T09:34:34;8.88;;;6.07;;
39314;SDS011;28703;44.412;11.918;2023-07-02T09:37:02;10.35;;;7.03;;
39314;SDS011;28703;44.412;11.918;2023-07-02T09:39:33;6.82;;;6.13;;
39314;SDS011;28703;44.412;11.918;2023-07-02T09:42:02;10.40;;;8.55;;
39314;SDS011;28703;44.412;11.918;2023-07-02T09:44:33;8.05;;;7.25;;
39314;SDS011;28703;44.412;11.918;2023-07-02T09:47:06;7.65;;;6.82;;
39314;SDS011;28703;44.412;11.918;2023-07-02T09:49:34;8.07;;;7.05;;
39314;SDS011;28703;44.412;11.918;2023-07-02T09:52:02;8.93;;;6.50;;
39314;SDS011;28703;44.412;11.918;2023-07-02T09:54:30;8.95;;;6.63;;
39314;SDS011;28703;44.412;11.918;2023-07-02T09:56:59;8.18;;;6.60;;
39314;SDS011;28703;44.412;11.918;2023-07-02T09:59:26;10.40;;;6.68;;
39314;SDS011;28703;44.412;11.918;2023-07-02T10:01:52;5.60;;;5.10;;
39314;SDS011;28703;44.412;11.918;2023-07-02T10:04:19;5.55;;;5.05;;
39314;SDS011;28703;44.412;11.918;2023-07-02T10:07:03;6.00;;;5.40;;
39314;SDS011;28703;44.412;11.918;2023-07-02T10:09:37;6.65;;;6.05;;
39314;SDS011;28703;44.412;11.918;2023-07-02T10:12:18;6.20;;;4.47;;
39314;SDS011;28703;44.412;11.918;2023-07-02T10:14:46;5.45;;;4.95;;
39314;SDS011;28703;44.412;11.918;2023-07-02T10:17:26;7.47;;;5.05;;
39314;SDS011;28703;44.412;11.918;2023-07-02T10:19:59;9.13;;;5.75;;
39314;SDS011;28703;44.412;11.918;2023-07-02T10:22:49;5.35;;;4.72;;
39314;SDS011;28703;44.412;11.918;2023-07-02T10:25:25;4.70;;;4.30;;
39314;SDS011;28703;44.412;11.918;2023-07-02T10:27:52;5.70;;;5.20;;
39314;SDS011;28703;44.412;11.918;2023-07-02T10:30:18;5.45;;;4.88;;
39314;SDS011;28703;44.412;11.918;2023-07-02T10:32:55;6.53;;;4.30;;
39314;SDS011;28703;44.412;11.918;2023-07-02T10:35:32;5.93;;;4.88;;
39314;SDS011;28703;44.412;11.918;2023-07-02T10:37:59;6.00;;;4.22;;
39314;SDS011;28703;44.412;11.918;2023-07-02T10:40:25;5.13;;;4.70;;
39314;SDS011;28703;44.412;11.918;2023-07-02T10:42:52;8.63;;;4.90;;
39314;SDS011;28703;44.412;11.918;2023-07-02T10:45:19;9.68;;;5.68;;
39314;SDS011;28703;44.412;11.918;2023-07-02T10:47:46;5.82;;;5.22;;
39314;SDS011;28703;44.412;11.918;2023-07-02T10:50:19;11.70;;;7.40;;
39314;SDS011;28703;44.412;11.918;2023-07-02T10:52:46;6.05;;;5.53;;
39314;SDS011;28703;44.412;11.918;2023-07-02T10:55:19;6.10;;;5.50;;
39314;SDS011;28703;44.412;11.918;2023-07-02T10:57:50;8.20;;;7.07;;
39314;SDS011;28703;44.412;11.918;2023-07-02T11:00:27;7.80;;;6.78;;
39314;SDS011;28703;44.412;11.918;2023-07-02T11:02:54;6.78;;;5.82;;
39314;SDS011;28703;44.412;11.918;2023-07-02T11:05:20;9.13;;;6.00;;
39314;SDS011;28703;44.412;11.918;2023-07-02T11:07:46;6.88;;;6.22;;
39314;SDS011;28703;44.412;11.918;2023-07-02T11:10:18;6.95;;;5.72;;
39314;SDS011;28703;44.412;11.918;2023-07-02T11:12:45;6.85;;;6.25;;
39314;SDS011;28703;44.412;11.918;2023-07-02T11:15:11;6.45;;;5.85;;
39314;SDS011;28703;44.412;11.918;2023-07-02T11:17:42;7.30;;;6.30;;
39314;SDS011;28703;44.412;11.918;2023-07-02T11:20:09;7.88;;;5.82;;
39314;SDS011;28703;44.412;11.918;2023-07-02T11:22:36;10.02;;;6.80;;
39314;SDS011;28703;44.412;11.918;2023-07-02T11:25:10;9.20;;;5.47;;
39314;SDS011;28703;44.412;11.918;2023-07-02T11:27:41;7.95;;;6.65;;
39314;SDS011;28703;44.412;11.918;2023-07-02T11:30:07;6.03;;;5.43;;
39314;SDS011;28703;44.412;11.918;2023-07-02T11:33:16;6.97;;;5.60;;
39314;SDS011;28703;44.412;11.918;2023-07-02T11:35:33;5.88;;;5.32;;
39314;SDS011;28703;44.412;11.918;2023-07-02T11:38:00;6.05;;;5.32;;
39314;SDS011;28703;44.412;11.918;2023-07-02T11:40:26;6.95;;;5.35;;
39314;SDS011;28703;44.412;11.918;2023-07-02T11:42:52;8.30;;;5.13;;
39314;SDS011;28703;44.412;11.918;2023-07-02T11:58:01;5.30;;;4.90;;
39314;SDS011;28703;44.412;11.918;2023-07-02T12:00:27;4.43;;;4.03;;
39314;SDS011;28703;44.412;11.918;2023-07-02T12:02:53;5.32;;;4.93;;
39314;SDS011;28703;44.412;11.918;2023-07-02T12:05:20;4.93;;;4.22;;
39314;SDS011;28703;44.412;11.918;2023-07-02T12:07:46;6.88;;;5.43;;
39314;SDS011;28703;44.412;11.918;2023-07-02T12:10:12;6.63;;;5.97;;
39314;SDS011;28703;44.412;11.918;2023-07-02T12:12:38;9.73;;;5.70;;
39314;SDS011;28703;44.412;11.918;2023-07-02T12:15:04;6.25;;;5.65;;
39314;SDS011;28703;44.412;11.918;2023-07-02T12:17:30;10.27;;;6.03;;
39314;SDS011;28703;44.412;11.918;2023-07-02T12:19:56;7.07;;;5.78;;
39314;SDS011;28703;44.412;11.918;2023-07-02T12:22:22;6.30;;;4.90;;
39314;SDS011;28703;44.412;11.918;2023-07-02T12:24:48;7.45;;;5.80;;
39314;SDS011;28703;44.412;11.918;2023-07-02T12:29:48;8.27;;;6.80;;
39314;SDS011;28703;44.412;11.918;2023-07-02T12:32:14;8.65;;;7.00;;
39314;SDS011;28703;44.412;11.918;2023-07-02T12:34:40;10.45;;;6.50;;
39314;SDS011;28703;44.412;11.918;2023-07-02T12:37:06;9.38;;;6.78;;
39314;SDS011;28703;44.412;11.918;2023-07-02T12:39:32;7.65;;;6.90;;
39314;SDS011;28703;44.412;11.918;2023-07-02T12:41:58;7.75;;;6.50;;
39314;SDS011;28703;44.412;11.918;2023-07-02T12:44:25;9.68;;;8.63;;
39314;SDS011;28703;44.412;11.918;2023-07-02T12:46:51;8.18;;;6.97;;
39314;SDS011;28703;44.412;11.918;2023-07-02T12:49:17;8.13;;;6.72;;
39314;SDS011;28703;44.412;11.918;2023-07-02T12:51:42;8.48;;;6.82;;
39314;SDS011;28703;44.412;11.918;2023-07-02T12:54:08;12.13;;;7.30;;
39314;SDS011;28703;44.412;11.918;2023-07-02T12:56:34;10.10;;;6.63;;
39314;SDS011;28703;44.412;11.918;2023-07-02T12:59:01;6.68;;;6.07;;
39314;SDS011;28703;44.412;11.918;2023-07-02T13:01:28;9.05;;;6.72;;
39314;SDS011;28703;44.412;11.918;2023-07-02T13:03:54;9.13;;;6.35;;
39314;SDS011;28703;44.412;11.918;2023-07-02T13:06:20;6.97;;;6.28;;
39314;SDS011;28703;44.412;11.918;2023-07-02T13:08:45;6.28;;;5.68;;
39314;SDS011;28703;44.412;11.918;2023-07-02T13:11:11;7.97;;;6.72;;
39314;SDS011;28703;44.412;11.918;2023-07-02T13:13:37;6.90;;;5.80;;
39314;SDS011;28703;44.412;11.918;2023-07-02T13:16:03;7.43;;;6.28;;
39314;SDS011;28703;44.412;11.918;2023-07-02T13:18:29;7.55;;;6.55;;
39314;SDS011;28703;44.412;11.918;2023-07-02T13:20:55;6.45;;;5.43;;
39314;SDS011;28703;44.412;11.918;2023-07-02T13:23:21;5.93;;;5.35;;
39314;SDS011;28703;44.412;11.918;2023-07-02T13:25:47;8.98;;;6.20;;
39314;SDS011;28703;44.412;11.918;2023-07-02T13:28:13;7.05;;;6.35;;
39314;SDS011;28703;44.412;11.918;2023-07-02T13:30:39;9.18;;;6.53;;
39314;SDS011;28703;44.412;11.918;2023-07-02T13:33:05;7.53;;;6.07;;
39314;SDS011;28703;44.412;11.918;2023-07-02T13:35:31;6.38;;;5.78;;
39314;SDS011;28703;44.412;11.918;2023-07-02T13:37:57;7.38;;;5.43;;
39314;SDS011;28703;44.412;11.918;2023-07-02T13:40:25;11.73;;;6.25;;
39314;SDS011;28703;44.412;11.918;2023-07-02T13:42:51;20.63;;;6.57;;
39314;SDS011;28703;44.412;11.918;2023-07-02T13:45:17;9.38;;;6.20;;
39314;SDS011;28703;44.412;11.918;2023-07-02T13:47:43;11.65;;;5.90;;
39314;SDS011;28703;44.412;11.918;2023-07-02T13:50:09;6.38;;;5.43;;
39314;SDS011;28703;44.412;11.918;2023-07-02T13:52:35;6.88;;;5.13;;
39314;SDS011;28703;44.412;11.918;2023-07-02T13:55:01;20.58;;;6.45;;
39314;SDS011;28703;44.412;11.918;2023-07-02T13:57:27;9.43;;;6.45;;
39314;SDS011;28703;44.412;11.918;2023-07-02T13:59:52;12.35;;;6.38;;
39314;SDS011;28703;44.412;11.918;2023-07-02T14:02:18;9.55;;;5.60;;
39314;SDS011;28703;44.412;11.918;2023-07-02T14:04:44;10.05;;;6.13;;
39314;SDS011;28703;44.412;11.918;2023-07-02T14:07:11;18.60;;;6.18;;
39314;SDS011;28703;44.412;11.918;2023-07-02T14:09:37;21.70;;;6.30;;
39314;SDS011;28703;44.412;11.918;2023-07-02T14:12:02;15.02;;;5.82;;
39314;SDS011;28703;44.412;11.918;2023-07-02T14:14:28;11.82;;;6.22;;
39314;SDS011;28703;44.412;11.918;2023-07-02T14:16:55;10.15;;;5.57;;
39314;SDS011;28703;44.412;11.918;2023-07-02T14:19:20;6.82;;;6.13;;
39314;SDS011;28703;44.412;11.918;2023-07-02T14:21:46;9.38;;;5.50;;
39314;SDS011;28703;44.412;11.918;2023-07-02T14:24:12;26.02;;;6.78;;
39314;SDS011;28703;44.412;11.918;2023-07-02T14:26:39;19.45;;;5.95;;
39314;SDS011;28703;44.412;11.918;2023-07-02T14:29:05;23.92;;;6.10;;
39314;SDS011;28703;44.412;11.918;2023-07-02T14:31:31;9.88;;;5.88;;
39314;SDS011;28703;44.412;11.918;2023-07-02T14:33:57;8.43;;;5.95;;
39314;SDS011;28703;44.412;11.918;2023-07-02T14:36:25;53.30;;;6.55;;
39314;SDS011;28703;44.412;11.918;2023-07-02T14:38:51;10.63;;;5.93;;